sensor_id;sensor_type;location;lat;lon;timestamp;P1;P2;P0
51258;PMS7003;37327;54.254;18.504;2022-10-31T00:01:11;10;9;7
51258;PMS7003;37327;54.254;18.504;2022-10-31T00:04:24;11;11;10
51258;PMS7003;37327;54.254;18.504;2022-10-31T00:07:30;13;12;10
51258;PMS7003;37327;54.254;18.504;2022-10-31T00:10:38;12;10;8
51258;PMS7003;37327;54.254;18.504;2022-10-31T00:13:46;10;10;9
51258;PMS7003;37327;54.254;18.504;2022-10-31T00:17:21;10;10;9
51258;PMS7003;37327;54.254;18.504;2022-10-31T00:20:28;10;9;8
51258;PMS7003;37327;54.254;18.504;2022-10-31T00:23:36;13;12;11
51258;PMS7003;37327;54.254;18.504;2022-10-31T00:26:43;12;12;10
51258;PMS7003;37327;54.254;18.504;2022-10-31T00:29:49;11;10;9
51258;PMS7003;37327;54.254;18.504;2022-10-31T00:32:56;18;14;11
51258;PMS7003;37327;54.254;18.504;2022-10-31T00:36:03;11;10;9
51258;PMS7003;37327;54.254;18.504;2022-10-31T00:39:37;12;11;9
51258;PMS7003;37327;54.254;18.504;2022-10-31T00:42:44;11;11;10
51258;PMS7003;37327;54.254;18.504;2022-10-31T00:45:51;3;3;3
51258;PMS7003;37327;54.254;18.504;2022-10-31T00:48:58;11;11;9
51258;PMS7003;37327;54.254;18.504;2022-10-31T00:52:05;8;8;6
51258;PMS7003;37327;54.254;18.504;2022-10-31T00:55:12;10;10;9
51258;PMS7003;37327;54.254;18.504;2022-10-31T00:58:47;15;10;8
51258;PMS7003;37327;54.254;18.504;2022-10-31T01:01:53;11;9;7
51258;PMS7003;37327;54.254;18.504;2022-10-31T01:05:00;10;10;8
51258;PMS7003;37327;54.254;18.504;2022-10-31T01:08:07;11;10;8
51258;PMS7003;37327;54.254;18.504;2022-10-31T01:11:17;12;10;8
51258;PMS7003;37327;54.254;18.504;2022-10-31T01:14:27;12;12;9
51258;PMS7003;37327;54.254;18.504;2022-10-31T01:17:58;15;12;9
51258;PMS7003;37327;54.254;18.504;2022-10-31T01:24:19;17;14;10
51258;PMS7003;37327;54.254;18.504;2022-10-31T01:27:25;14;13;10
51258;PMS7003;37327;54.254;18.504;2022-10-31T01:30:32;15;14;10
51258;PMS7003;37327;54.254;18.504;2022-10-31T01:33:40;12;11;8
51258;PMS7003;37327;54.254;18.504;2022-10-31T01:37:12;18;12;9
51258;PMS7003;37327;54.254;18.504;2022-10-31T01:40:19;13;12;9
51258;PMS7003;37327;54.254;18.504;2022-10-31T01:43:41;14;12;10
51258;PMS7003;37327;54.254;18.504;2022-10-31T01:46:50;15;13;11
51258;PMS7003;37327;54.254;18.504;2022-10-31T01:50:32;19;14;11
51258;PMS7003;37327;54.254;18.504;2022-10-31T01:53:43;18;16;11
51258;PMS7003;37327;54.254;18.504;2022-10-31T01:56:55;18;17;12
51258;PMS7003;37327;54.254;18.504;2022-10-31T02:00:06;16;16;11
51258;PMS7003;37327;54.254;18.504;2022-10-31T02:03:15;19;18;12
51258;PMS7003;37327;54.254;18.504;2022-10-31T02:07:00;16;13;11
51258;PMS7003;37327;54.254;18.504;2022-10-31T02:10:04;12;11;7
51258;PMS7003;37327;54.254;18.504;2022-10-31T02:13:13;15;14;12
51258;PMS7003;37327;54.254;18.504;2022-10-31T02:16:25;17;14;10
51258;PMS7003;37327;54.254;18.504;2022-10-31T02:33:41;19;16;13
51258;PMS7003;37327;54.254;18.504;2022-10-31T02:47:22;21;19;13
51258;PMS7003;37327;54.254;18.504;2022-10-31T02:50:33;22;18;13
51258;PMS7003;37327;54.254;18.504;2022-10-31T02:53:43;21;18;13
51258;PMS7003;37327;54.254;18.504;2022-10-31T02:57:17;19;17;13
51258;PMS7003;37327;54.254;18.504;2022-10-31T03:00:32;17;17;13
51258;PMS7003;37327;54.254;18.504;2022-10-31T03:10:59;18;16;13
51258;PMS7003;37327;54.254;18.504;2022-10-31T03:14:10;18;16;13
51258;PMS7003;37327;54.254;18.504;2022-10-31T03:17:23;18;15;12
51258;PMS7003;37327;54.254;18.504;2022-10-31T03:24:21;16;16;13
51258;PMS7003;37327;54.254;18.504;2022-10-31T03:27:33;19;19;14
51258;PMS7003;37327;54.254;18.504;2022-10-31T03:30:44;19;16;11
51258;PMS7003;37327;54.254;18.504;2022-10-31T03:34:18;18;16;12
51258;PMS7003;37327;54.254;18.504;2022-10-31T03:37:27;17;12;10
51258;PMS7003;37327;54.254;18.504;2022-10-31T03:40:36;16;14;10
51258;PMS7003;37327;54.254;18.504;2022-10-31T03:43:48;15;14;12
51258;PMS7003;37327;54.254;18.504;2022-10-31T03:47:01;19;15;11
51258;PMS7003;37327;54.254;18.504;2022-10-31T03:50:45;16;15;11
51258;PMS7003;37327;54.254;18.504;2022-10-31T03:54:02;19;17;11
51258;PMS7003;37327;54.254;18.504;2022-10-31T03:57:14;14;11;8
51258;PMS7003;37327;54.254;18.504;2022-10-31T04:00:54;19;18;15
51258;PMS7003;37327;54.254;18.504;2022-10-31T04:04:03;19;17;12
51258;PMS7003;37327;54.254;18.504;2022-10-31T04:07:13;20;19;13
51258;PMS7003;37327;54.254;18.504;2022-10-31T04:10:22;19;19;16
51258;PMS7003;37327;54.254;18.504;2022-10-31T04:13:32;18;17;14
51258;PMS7003;37327;54.254;18.504;2022-10-31T04:17:07;23;20;15
51258;PMS7003;37327;54.254;18.504;2022-10-31T04:20:17;24;21;16
51258;PMS7003;37327;54.254;18.504;2022-10-31T04:23:27;22;21;16
51258;PMS7003;37327;54.254;18.504;2022-10-31T04:26:35;21;20;17
51258;PMS7003;37327;54.254;18.504;2022-10-31T04:29:42;24;23;18
51258;PMS7003;37327;54.254;18.504;2022-10-31T04:32:50;26;26;19
51258;PMS7003;37327;54.254;18.504;2022-10-31T04:36:22;26;26;21
51258;PMS7003;37327;54.254;18.504;2022-10-31T04:39:28;25;25;19
51258;PMS7003;37327;54.254;18.504;2022-10-31T04:42:35;27;24;17
51258;PMS7003;37327;54.254;18.504;2022-10-31T04:45:42;32;29;22
51258;PMS7003;37327;54.254;18.504;2022-10-31T04:48:49;27;26;21
51258;PMS7003;37327;54.254;18.504;2022-10-31T04:51:56;31;31;24
51258;PMS7003;37327;54.254;18.504;2022-10-31T04:55:03;31;30;22
51258;PMS7003;37327;54.254;18.504;2022-10-31T04:58:36;11;11;8
51258;PMS7003;37327;54.254;18.504;2022-10-31T05:01:43;31;30;23
51258;PMS7003;37327;54.254;18.504;2022-10-31T05:04:51;22;20;13
51258;PMS7003;37327;54.254;18.504;2022-10-31T05:07:58;40;31;23
51258;PMS7003;37327;54.254;18.504;2022-10-31T05:11:05;37;34;24
51258;PMS7003;37327;54.254;18.504;2022-10-31T05:14:12;33;31;20
51258;PMS7003;37327;54.254;18.504;2022-10-31T05:17:47;34;32;25
51258;PMS7003;37327;54.254;18.504;2022-10-31T05:20:54;33;30;23
51258;PMS7003;37327;54.254;18.504;2022-10-31T05:24:00;39;35;25
51258;PMS7003;37327;54.254;18.504;2022-10-31T05:27:09;35;33;24
51258;PMS7003;37327;54.254;18.504;2022-10-31T05:30:17;36;32;24
51258;PMS7003;37327;54.254;18.504;2022-10-31T05:33:27;33;32;24
51258;PMS7003;37327;54.254;18.504;2022-10-31T05:36:59;28;27;21
51258;PMS7003;37327;54.254;18.504;2022-10-31T05:40:06;34;33;23
51258;PMS7003;37327;54.254;18.504;2022-10-31T05:43:15;29;28;20
51258;PMS7003;37327;54.254;18.504;2022-10-31T05:46:21;32;29;23
51258;PMS7003;37327;54.254;18.504;2022-10-31T05:49:28;34;33;25
51258;PMS7003;37327;54.254;18.504;2022-10-31T05:52:37;37;33;24
51258;PMS7003;37327;54.254;18.504;2022-10-31T05:56:11;30;29;22
51258;PMS7003;37327;54.254;18.504;2022-10-31T05:59:18;38;32;24
51258;PMS7003;37327;54.254;18.504;2022-10-31T06:02:26;35;31;23
51258;PMS7003;37327;54.254;18.504;2022-10-31T06:05:40;32;28;22
51258;PMS7003;37327;54.254;18.504;2022-10-31T06:08:50;35;33;24
51258;PMS7003;37327;54.254;18.504;2022-10-31T06:12:24;31;31;23
51258;PMS7003;37327;54.254;18.504;2022-10-31T06:15:31;33;31;23
51258;PMS7003;37327;54.254;18.504;2022-10-31T06:18:39;34;31;22
51258;PMS7003;37327;54.254;18.504;2022-10-31T06:21:50;30;28;23
51258;PMS7003;37327;54.254;18.504;2022-10-31T06:24:57;30;29;21
51258;PMS7003;37327;54.254;18.504;2022-10-31T06:28:04;35;31;23
51258;PMS7003;37327;54.254;18.504;2022-10-31T06:31:37;36;32;22
51258;PMS7003;37327;54.254;18.504;2022-10-31T06:34:44;32;29;21
51258;PMS7003;37327;54.254;18.504;2022-10-31T06:37:54;26;24;18
51258;PMS7003;37327;54.254;18.504;2022-10-31T06:41:04;24;22;15
51258;PMS7003;37327;54.254;18.504;2022-10-31T06:44:12;22;22;16
51258;PMS7003;37327;54.254;18.504;2022-10-31T06:47:19;25;22;18
51258;PMS7003;37327;54.254;18.504;2022-10-31T06:50:51;31;30;22
51258;PMS7003;37327;54.254;18.504;2022-10-31T06:53:58;25;22;18
51258;PMS7003;37327;54.254;18.504;2022-10-31T06:57:04;26;25;20
51258;PMS7003;37327;54.254;18.504;2022-10-31T07:00:11;16;16;14
51258;PMS7003;37327;54.254;18.504;2022-10-31T07:03:18;21;21;15
51258;PMS7003;37327;54.254;18.504;2022-10-31T07:07:04;26;23;19
51258;PMS7003;37327;54.254;18.504;2022-10-31T07:10:22;27;27;21
51258;PMS7003;37327;54.254;18.504;2022-10-31T07:13:29;23;18;14
51258;PMS7003;37327;54.254;18.504;2022-10-31T07:16:36;18;18;16
51258;PMS7003;37327;54.254;18.504;2022-10-31T07:19:42;15;12;10
51258;PMS7003;37327;54.254;18.504;2022-10-31T07:23:18;18;18;13
51258;PMS7003;37327;54.254;18.504;2022-10-31T07:26:26;18;17;15
51258;PMS7003;37327;54.254;18.504;2022-10-31T07:29:30;23;22;18
51258;PMS7003;37327;54.254;18.504;2022-10-31T07:32:40;25;23;18
51258;PMS7003;37327;54.254;18.504;2022-10-31T07:35:49;2;2;1
51258;PMS7003;37327;54.254;18.504;2022-10-31T07:38:55;21;19;15
51258;PMS7003;37327;54.254;18.504;2022-10-31T07:42:34;27;25;17
51258;PMS7003;37327;54.254;18.504;2022-10-31T07:45:43;22;22;17
51258;PMS7003;37327;54.254;18.504;2022-10-31T07:48:49;23;21;16
51258;PMS7003;37327;54.254;18.504;2022-10-31T07:51:57;27;22;16
51258;PMS7003;37327;54.254;18.504;2022-10-31T07:55:04;24;21;17
51258;PMS7003;37327;54.254;18.504;2022-10-31T07:58:11;20;20;15
51258;PMS7003;37327;54.254;18.504;2022-10-31T08:01:45;18;16;14
51258;PMS7003;37327;54.254;18.504;2022-10-31T08:04:56;22;21;17
51258;PMS7003;37327;54.254;18.504;2022-10-31T08:08:03;21;20;15
51258;PMS7003;37327;54.254;18.504;2022-10-31T08:11:10;18;18;14
51258;PMS7003;37327;54.254;18.504;2022-10-31T08:14:17;12;12;9
51258;PMS7003;37327;54.254;18.504;2022-10-31T08:17:24;19;19;15
51258;PMS7003;37327;54.254;18.504;2022-10-31T08:20:56;22;19;15
51258;PMS7003;37327;54.254;18.504;2022-10-31T08:24:03;21;21;16
51258;PMS7003;37327;54.254;18.504;2022-10-31T08:27:11;22;20;16
51258;PMS7003;37327;54.254;18.504;2022-10-31T08:30:18;24;21;15
51258;PMS7003;37327;54.254;18.504;2022-10-31T08:33:26;22;19;14
51258;PMS7003;37327;54.254;18.504;2022-10-31T08:36:33;26;20;17
51258;PMS7003;37327;54.254;18.504;2022-10-31T08:40:06;19;18;15
51258;PMS7003;37327;54.254;18.504;2022-10-31T08:43:15;16;13;12
51258;PMS7003;37327;54.254;18.504;2022-10-31T08:46:23;21;19;14
51258;PMS7003;37327;54.254;18.504;2022-10-31T08:49:30;23;22;17
51258;PMS7003;37327;54.254;18.504;2022-10-31T08:52:36;21;19;16
51258;PMS7003;37327;54.254;18.504;2022-10-31T08:55:45;21;20;15
51258;PMS7003;37327;54.254;18.504;2022-10-31T08:59:19;17;17;13
51258;PMS7003;37327;54.254;18.504;2022-10-31T09:02:27;19;19;14
51258;PMS7003;37327;54.254;18.504;2022-10-31T09:05:33;19;18;13
51258;PMS7003;37327;54.254;18.504;2022-10-31T09:08:41;23;22;18
51258;PMS7003;37327;54.254;18.504;2022-10-31T09:11:48;20;20;15
51258;PMS7003;37327;54.254;18.504;2022-10-31T09:14:55;23;21;16
51258;PMS7003;37327;54.254;18.504;2022-10-31T09:18:28;28;24;18
51258;PMS7003;37327;54.254;18.504;2022-10-31T09:23:10;21;21;16
51258;PMS7003;37327;54.254;18.504;2022-10-31T09:26:19;20;20;16
51258;PMS7003;37327;54.254;18.504;2022-10-31T09:29:26;29;26;19
51258;PMS7003;37327;54.254;18.504;2022-10-31T09:32:33;23;23;18
51258;PMS7003;37327;54.254;18.504;2022-10-31T09:35:40;23;22;17
51258;PMS7003;37327;54.254;18.504;2022-10-31T09:39:15;24;20;16
51258;PMS7003;37327;54.254;18.504;2022-10-31T09:52:45;18;16;15
51258;PMS7003;37327;54.254;18.504;2022-10-31T09:56:00;22;21;17
51258;PMS7003;37327;54.254;18.504;2022-10-31T09:59:34;23;19;15
51258;PMS7003;37327;54.254;18.504;2022-10-31T10:02:32;21;19;15
51258;PMS7003;37327;54.254;18.504;2022-10-31T10:09:31;24;22;17
51258;PMS7003;37327;54.254;18.504;2022-10-31T10:12:41;22;19;16
51258;PMS7003;37327;54.254;18.504;2022-10-31T10:16:00;22;20;15
51258;PMS7003;37327;54.254;18.504;2022-10-31T10:26:22;20;19;16
51258;PMS7003;37327;54.254;18.504;2022-10-31T10:30:03;26;23;19
51258;PMS7003;37327;54.254;18.504;2022-10-31T10:33:21;25;23;18
51258;PMS7003;37327;54.254;18.504;2022-10-31T10:36:35;20;20;16
51258;PMS7003;37327;54.254;18.504;2022-10-31T10:39:52;25;21;17
51258;PMS7003;37327;54.254;18.504;2022-10-31T10:46:59;19;18;15
51258;PMS7003;37327;54.254;18.504;2022-10-31T10:50:18;17;17;14
51258;PMS7003;37327;54.254;18.504;2022-10-31T11:00:38;15;15;12
51258;PMS7003;37327;54.254;18.504;2022-10-31T11:04:35;19;18;15
51258;PMS7003;37327;54.254;18.504;2022-10-31T11:10:45;18;18;15
51258;PMS7003;37327;54.254;18.504;2022-10-31T11:14:00;17;16;14
51258;PMS7003;37327;54.254;18.504;2022-10-31T11:17:38;18;17;15
51258;PMS7003;37327;54.254;18.504;2022-10-31T11:20:50;18;17;14
51258;PMS7003;37327;54.254;18.504;2022-10-31T11:27:21;19;16;13
51258;PMS7003;37327;54.254;18.504;2022-10-31T11:30:56;17;16;13
51258;PMS7003;37327;54.254;18.504;2022-10-31T11:34:06;16;16;13
51258;PMS7003;37327;54.254;18.504;2022-10-31T11:37:40;18;16;14
51258;PMS7003;37327;54.254;18.504;2022-10-31T11:40:35;17;17;13
51258;PMS7003;37327;54.254;18.504;2022-10-31T11:43:47;15;14;12
51258;PMS7003;37327;54.254;18.504;2022-10-31T11:47:26;14;13;12
51258;PMS7003;37327;54.254;18.504;2022-10-31T11:50:35;16;15;13
51258;PMS7003;37327;54.254;18.504;2022-10-31T11:53:55;13;13;12
51258;PMS7003;37327;54.254;18.504;2022-10-31T11:56:59;10;9;8
51258;PMS7003;37327;54.254;18.504;2022-10-31T12:00:17;16;16;14
51258;PMS7003;37327;54.254;18.504;2022-10-31T12:07:09;16;16;12
51258;PMS7003;37327;54.254;18.504;2022-10-31T12:10:19;17;17;14
51258;PMS7003;37327;54.254;18.504;2022-10-31T12:13:52;16;15;12
51258;PMS7003;37327;54.254;18.504;2022-10-31T12:24:03;16;15;12
51258;PMS7003;37327;54.254;18.504;2022-10-31T12:44:54;14;13;10
51258;PMS7003;37327;54.254;18.504;2022-10-31T12:55:14;16;16;13
51258;PMS7003;37327;54.254;18.504;2022-10-31T13:02:18;14;14;12
51258;PMS7003;37327;54.254;18.504;2022-10-31T13:05:32;16;15;12
51258;PMS7003;37327;54.254;18.504;2022-10-31T13:09:15;17;16;14
51258;PMS7003;37327;54.254;18.504;2022-10-31T13:12:26;17;16;12
51258;PMS7003;37327;54.254;18.504;2022-10-31T13:15:41;17;16;12
51258;PMS7003;37327;54.254;18.504;2022-10-31T13:22:36;15;15;12
51258;PMS7003;37327;54.254;18.504;2022-10-31T13:25:47;13;13;12
51258;PMS7003;37327;54.254;18.504;2022-10-31T13:29:04;17;16;12
51258;PMS7003;37327;54.254;18.504;2022-10-31T13:32:20;16;16;12
51258;PMS7003;37327;54.254;18.504;2022-10-31T13:35:54;18;18;13
51258;PMS7003;37327;54.254;18.504;2022-10-31T13:42:37;18;16;14
51258;PMS7003;37327;54.254;18.504;2022-10-31T13:52:46;14;14;13
51258;PMS7003;37327;54.254;18.504;2022-10-31T13:59:37;16;15;14
51258;PMS7003;37327;54.254;18.504;2022-10-31T14:02:46;16;15;11
51258;PMS7003;37327;54.254;18.504;2022-10-31T14:05:55;18;17;12
51258;PMS7003;37327;54.254;18.504;2022-10-31T14:09:03;17;16;11
51258;PMS7003;37327;54.254;18.504;2022-10-31T14:12:12;9;9;7
51258;PMS7003;37327;54.254;18.504;2022-10-31T14:19:08;14;13;11
51258;PMS7003;37327;54.254;18.504;2022-10-31T14:22:28;17;16;12
51258;PMS7003;37327;54.254;18.504;2022-10-31T14:25:36;13;13;12
51258;PMS7003;37327;54.254;18.504;2022-10-31T14:32:28;16;14;11
51258;PMS7003;37327;54.254;18.504;2022-10-31T14:39:02;14;14;12
51258;PMS7003;37327;54.254;18.504;2022-10-31T14:46:02;14;14;12
51258;PMS7003;37327;54.254;18.504;2022-10-31T14:53:05;17;17;13
51258;PMS7003;37327;54.254;18.504;2022-10-31T14:56:24;19;17;14
51258;PMS7003;37327;54.254;18.504;2022-10-31T14:59:35;16;15;13
51258;PMS7003;37327;54.254;18.504;2022-10-31T15:02:50;16;15;14
51258;PMS7003;37327;54.254;18.504;2022-10-31T15:06:31;15;15;12
51258;PMS7003;37327;54.254;18.504;2022-10-31T15:09:55;18;16;12
51258;PMS7003;37327;54.254;18.504;2022-10-31T15:16:49;13;12;10
51258;PMS7003;37327;54.254;18.504;2022-10-31T15:19:56;17;16;14
51258;PMS7003;37327;54.254;18.504;2022-10-31T15:23:04;17;15;11
51258;PMS7003;37327;54.254;18.504;2022-10-31T15:26:14;13;12;10
51258;PMS7003;37327;54.254;18.504;2022-10-31T15:29:25;13;13;11
51258;PMS7003;37327;54.254;18.504;2022-10-31T15:32:32;10;9;7
51258;PMS7003;37327;54.254;18.504;2022-10-31T15:36:18;10;10;7
51258;PMS7003;37327;54.254;18.504;2022-10-31T15:39:27;14;13;12
51258;PMS7003;37327;54.254;18.504;2022-10-31T15:42:35;18;15;11
51258;PMS7003;37327;54.254;18.504;2022-10-31T15:45:48;16;15;13
51258;PMS7003;37327;54.254;18.504;2022-10-31T15:55:57;14;13;11
51258;PMS7003;37327;54.254;18.504;2022-10-31T15:59:11;7;7;7
51258;PMS7003;37327;54.254;18.504;2022-10-31T16:02:48;14;14;11
51258;PMS7003;37327;54.254;18.504;2022-10-31T16:05:56;13;13;11
51258;PMS7003;37327;54.254;18.504;2022-10-31T16:09:26;15;14;11
51258;PMS7003;37327;54.254;18.504;2022-10-31T16:12:25;11;11;8
51258;PMS7003;37327;54.254;18.504;2022-10-31T16:19:26;18;17;14
51258;PMS7003;37327;54.254;18.504;2022-10-31T16:22:37;17;15;13
51258;PMS7003;37327;54.254;18.504;2022-10-31T16:25:46;15;15;13
51258;PMS7003;37327;54.254;18.504;2022-10-31T16:35:56;22;20;16
51258;PMS7003;37327;54.254;18.504;2022-10-31T16:39:05;22;20;14
51258;PMS7003;37327;54.254;18.504;2022-10-31T16:42:37;19;18;15
51258;PMS7003;37327;54.254;18.504;2022-10-31T16:45:48;19;18;14
51258;PMS7003;37327;54.254;18.504;2022-10-31T16:48:59;21;19;14
51258;PMS7003;37327;54.254;18.504;2022-10-31T16:52:06;19;16;14
51258;PMS7003;37327;54.254;18.504;2022-10-31T16:55:13;19;18;15
51258;PMS7003;37327;54.254;18.504;2022-10-31T16:58:21;18;17;15
51258;PMS7003;37327;54.254;18.504;2022-10-31T17:01:56;20;17;14
51258;PMS7003;37327;54.254;18.504;2022-10-31T17:05:05;20;18;15
51258;PMS7003;37327;54.254;18.504;2022-10-31T17:08:16;26;18;14
51258;PMS7003;37327;54.254;18.504;2022-10-31T17:11:23;22;20;16
51258;PMS7003;37327;54.254;18.504;2022-10-31T17:14:32;15;14;12
51258;PMS7003;37327;54.254;18.504;2022-10-31T17:17:39;19;18;14
51258;PMS7003;37327;54.254;18.504;2022-10-31T17:21:15;16;16;14
51258;PMS7003;37327;54.254;18.504;2022-10-31T17:24:32;16;16;13
51258;PMS7003;37327;54.254;18.504;2022-10-31T17:27:39;17;17;14
51258;PMS7003;37327;54.254;18.504;2022-10-31T17:30:45;16;14;12
51258;PMS7003;37327;54.254;18.504;2022-10-31T17:33:56;18;16;12
51258;PMS7003;37327;54.254;18.504;2022-10-31T17:37:29;16;14;13
51258;PMS7003;37327;54.254;18.504;2022-10-31T17:40:37;20;16;13
51258;PMS7003;37327;54.254;18.504;2022-10-31T17:43:53;14;13;12
51258;PMS7003;37327;54.254;18.504;2022-10-31T17:47:01;15;15;12
51258;PMS7003;37327;54.254;18.504;2022-10-31T17:50:08;20;19;15
51258;PMS7003;37327;54.254;18.504;2022-10-31T17:53:42;19;17;15
51258;PMS7003;37327;54.254;18.504;2022-10-31T17:56:48;24;20;16
51258;PMS7003;37327;54.254;18.504;2022-10-31T17:59:55;25;22;16
51258;PMS7003;37327;54.254;18.504;2022-10-31T18:03:02;18;18;14
51258;PMS7003;37327;54.254;18.504;2022-10-31T18:06:10;23;22;17
51258;PMS7003;37327;54.254;18.504;2022-10-31T18:09:21;27;25;20
51258;PMS7003;37327;54.254;18.504;2022-10-31T18:12:53;18;18;15
51258;PMS7003;37327;54.254;18.504;2022-10-31T18:16:00;18;18;15
51258;PMS7003;37327;54.254;18.504;2022-10-31T18:19:09;20;20;15
51258;PMS7003;37327;54.254;18.504;2022-10-31T18:22:19;18;17;14
51258;PMS7003;37327;54.254;18.504;2022-10-31T18:25:25;16;16;13
51258;PMS7003;37327;54.254;18.504;2022-10-31T18:28:32;14;14;10
51258;PMS7003;37327;54.254;18.504;2022-10-31T18:32:04;15;13;12
51258;PMS7003;37327;54.254;18.504;2022-10-31T18:35:16;12;11;9
51258;PMS7003;37327;54.254;18.504;2022-10-31T18:38:24;18;16;13
51258;PMS7003;37327;54.254;18.504;2022-10-31T18:41:32;14;13;11
51258;PMS7003;37327;54.254;18.504;2022-10-31T18:44:43;17;16;14
51258;PMS7003;37327;54.254;18.504;2022-10-31T18:48:20;15;15;13
51258;PMS7003;37327;54.254;18.504;2022-10-31T18:51:29;13;13;12
51258;PMS7003;37327;54.254;18.504;2022-10-31T18:54:36;12;11;9
51258;PMS7003;37327;54.254;18.504;2022-10-31T18:57:43;15;13;11
51258;PMS7003;37327;54.254;18.504;2022-10-31T19:00:53;12;11;9
51258;PMS7003;37327;54.254;18.504;2022-10-31T19:04:01;12;12;11
51258;PMS7003;37327;54.254;18.504;2022-10-31T19:07:33;14;14;10
51258;PMS7003;37327;54.254;18.504;2022-10-31T19:10:40;13;12;11
51258;PMS7003;37327;54.254;18.504;2022-10-31T19:13:47;14;14;13
51258;PMS7003;37327;54.254;18.504;2022-10-31T19:16:54;14;14;12
51258;PMS7003;37327;54.254;18.504;2022-10-31T19:20:01;14;13;11
51258;PMS7003;37327;54.254;18.504;2022-10-31T19:23:08;13;9;9
51258;PMS7003;37327;54.254;18.504;2022-10-31T19:26:14;10;9;8
51258;PMS7003;37327;54.254;18.504;2022-10-31T19:29:46;14;14;12
51258;PMS7003;37327;54.254;18.504;2022-10-31T19:32:54;14;13;10
51258;PMS7003;37327;54.254;18.504;2022-10-31T19:36:03;15;14;13
51258;PMS7003;37327;54.254;18.504;2022-10-31T19:39:16;11;11;10
51258;PMS7003;37327;54.254;18.504;2022-10-31T19:42:23;15;15;13
51258;PMS7003;37327;54.254;18.504;2022-10-31T19:45:30;15;12;11
51258;PMS7003;37327;54.254;18.504;2022-10-31T19:49:02;11;10;9
51258;PMS7003;37327;54.254;18.504;2022-10-31T19:52:08;10;10;9
51258;PMS7003;37327;54.254;18.504;2022-10-31T19:55:15;13;11;10
51258;PMS7003;37327;54.254;18.504;2022-10-31T19:58:22;11;10;9
51258;PMS7003;37327;54.254;18.504;2022-10-31T20:01:29;12;12;10
51258;PMS7003;37327;54.254;18.504;2022-10-31T20:04:36;11;11;9
51258;PMS7003;37327;54.254;18.504;2022-10-31T20:08:15;10;8;7
51258;PMS7003;37327;54.254;18.504;2022-10-31T20:11:26;11;10;8
51258;PMS7003;37327;54.254;18.504;2022-10-31T20:14:33;13;12;10
51258;PMS7003;37327;54.254;18.504;2022-10-31T20:17:41;9;9;9
51258;PMS7003;37327;54.254;18.504;2022-10-31T20:20:48;8;8;7
51258;PMS7003;37327;54.254;18.504;2022-10-31T20:24:24;12;10;9
51258;PMS7003;37327;54.254;18.504;2022-10-31T20:27:31;10;9;8
51258;PMS7003;37327;54.254;18.504;2022-10-31T20:30:40;14;14;11
51258;PMS7003;37327;54.254;18.504;2022-10-31T20:33:47;10;9;8
51258;PMS7003;37327;54.254;18.504;2022-10-31T20:36:55;9;9;8
51258;PMS7003;37327;54.254;18.504;2022-10-31T20:40:02;10;7;7
51258;PMS7003;37327;54.254;18.504;2022-10-31T20:43:35;9;9;8
51258;PMS7003;37327;54.254;18.504;2022-10-31T20:46:42;11;9;8
51258;PMS7003;37327;54.254;18.504;2022-10-31T20:49:48;9;9;8
51258;PMS7003;37327;54.254;18.504;2022-10-31T20:52:56;9;9;8
51258;PMS7003;37327;54.254;18.504;2022-10-31T20:59:18;8;8;7
51258;PMS7003;37327;54.254;18.504;2022-10-31T21:02:51;6;6;5
51258;PMS7003;37327;54.254;18.504;2022-10-31T21:05:59;7;7;7
51258;PMS7003;37327;54.254;18.504;2022-10-31T21:09:08;6;6;6
51258;PMS7003;37327;54.254;18.504;2022-10-31T21:12:17;8;7;6
51258;PMS7003;37327;54.254;18.504;2022-10-31T21:15:24;8;8;7
51258;PMS7003;37327;54.254;18.504;2022-10-31T21:18:30;7;5;4
51258;PMS7003;37327;54.254;18.504;2022-10-31T21:22:04;7;7;6
51258;PMS7003;37327;54.254;18.504;2022-10-31T21:25:11;4;4;3
51258;PMS7003;37327;54.254;18.504;2022-10-31T21:28:18;8;7;6
51258;PMS7003;37327;54.254;18.504;2022-10-31T21:31:24;6;6;6
51258;PMS7003;37327;54.254;18.504;2022-10-31T21:34:34;8;7;6
51258;PMS7003;37327;54.254;18.504;2022-10-31T21:37:40;7;7;7
51258;PMS7003;37327;54.254;18.504;2022-10-31T21:41:14;8;6;6
51258;PMS7003;37327;54.254;18.504;2022-10-31T21:44:23;9;8;7
51258;PMS7003;37327;54.254;18.504;2022-10-31T21:47:29;10;9;8
51258;PMS7003;37327;54.254;18.504;2022-10-31T21:50:37;8;8;8
51258;PMS7003;37327;54.254;18.504;2022-10-31T21:53:44;8;7;7
51258;PMS7003;37327;54.254;18.504;2022-10-31T21:57:29;9;7;7
51258;PMS7003;37327;54.254;18.504;2022-10-31T22:00:36;9;9;8
51258;PMS7003;37327;54.254;18.504;2022-10-31T22:03:43;14;13;10
51258;PMS7003;37327;54.254;18.504;2022-10-31T22:06:50;15;14;12
51258;PMS7003;37327;54.254;18.504;2022-10-31T22:09:57;17;17;14
51258;PMS7003;37327;54.254;18.504;2022-10-31T22:13:05;21;18;15
51258;PMS7003;37327;54.254;18.504;2022-10-31T22:16:39;26;23;17
51258;PMS7003;37327;54.254;18.504;2022-10-31T22:19:46;21;18;15
51258;PMS7003;37327;54.254;18.504;2022-10-31T22:22:53;17;17;14
51258;PMS7003;37327;54.254;18.504;2022-10-31T22:26:04;16;16;13
51258;PMS7003;37327;54.254;18.504;2022-10-31T22:29:19;15;15;13
51258;PMS7003;37327;54.254;18.504;2022-10-31T22:32:52;15;14;12
51258;PMS7003;37327;54.254;18.504;2022-10-31T22:36:02;15;15;12
51258;PMS7003;37327;54.254;18.504;2022-10-31T22:39:11;11;11;9
51258;PMS7003;37327;54.254;18.504;2022-10-31T22:42:18;15;13;11
51258;PMS7003;37327;54.254;18.504;2022-10-31T22:45:26;14;13;11
51258;PMS7003;37327;54.254;18.504;2022-10-31T22:48:34;14;14;12
51258;PMS7003;37327;54.254;18.504;2022-10-31T22:52:07;13;13;11
51258;PMS7003;37327;54.254;18.504;2022-10-31T22:55:14;11;10;8
51258;PMS7003;37327;54.254;18.504;2022-10-31T22:58:27;10;10;9
51258;PMS7003;37327;54.254;18.504;2022-10-31T23:01:34;10;8;7
51258;PMS7003;37327;54.254;18.504;2022-10-31T23:04:41;9;9;8
51258;PMS7003;37327;54.254;18.504;2022-10-31T23:07:48;9;9;8
51258;PMS7003;37327;54.254;18.504;2022-10-31T23:11:21;11;10;9
51258;PMS7003;37327;54.254;18.504;2022-10-31T23:14:29;11;9;8
51258;PMS7003;37327;54.254;18.504;2022-10-31T23:17:36;9;8;7
51258;PMS7003;37327;54.254;18.504;2022-10-31T23:20:49;7;7;7
51258;PMS7003;37327;54.254;18.504;2022-10-31T23:23:57;9;8;7
51258;PMS7003;37327;54.254;18.504;2022-10-31T23:27:33;9;8;7
51258;PMS7003;37327;54.254;18.504;2022-10-31T23:30:40;9;8;7